sensor_id;sensor_type;location;lat;lon;timestamp;P1;durP1;ratioP1;P2;durP2;ratioP2
1949;SDS011;975;48.760;9.152;2023-04-16T00:01:20;11.60;;;6.50;;
1949;SDS011;975;48.760;9.152;2023-04-16T00:03:47;14.73;;;7.70;;
1949;SDS011;975;48.760;9.152;2023-04-16T00:06:15;11.52;;;5.95;;
1949;SDS011;975;48.760;9.152;2023-04-16T00:08:42;13.20;;;6.60;;
1949;SDS011;975;48.760;9.152;2023-04-16T00:11:10;13.27;;;6.32;;
1949;SDS011;975;48.760;9.152;2023-04-16T00:13:37;9.30;;;5.82;;
1949;SDS011;975;48.760;9.152;2023-04-16T00:16:07;11.52;;;6.43;;
1949;SDS011;975;48.760;9.152;2023-04-16T00:18:35;12.48;;;6.82;;
1949;SDS011;975;48.760;9.152;2023-04-16T00:21:02;11.32;;;6.20;;
1949;SDS011;975;48.760;9.152;2023-04-16T00:23:30;12.23;;;7.03;;
1949;SDS011;975;48.760;9.152;2023-04-16T00:26:00;14.88;;;7.28;;
1949;SDS011;975;48.760;9.152;2023-04-16T00:28:27;14.77;;;6.97;;
1949;SDS011;975;48.760;9.152;2023-04-16T00:30:55;14.20;;;6.70;;
1949;SDS011;975;48.760;9.152;2023-04-16T00:33:24;13.00;;;6.50;;
1949;SDS011;975;48.760;9.152;2023-04-16T00:35:51;12.52;;;6.32;;
1949;SDS011;975;48.760;9.152;2023-04-16T00:38:18;14.15;;;7.25;;
1949;SDS011;975;48.760;9.152;2023-04-16T00:40:46;12.82;;;7.18;;
1949;SDS011;975;48.760;9.152;2023-04-16T00:43:19;13.65;;;6.80;;
1949;SDS011;975;48.760;9.152;2023-04-16T00:45:46;12.55;;;6.57;;
1949;SDS011;975;48.760;9.152;2023-04-16T00:48:14;11.93;;;6.28;;
1949;SDS011;975;48.760;9.152;2023-04-16T00:50:43;14.27;;;7.10;;
1949;SDS011;975;48.760;9.152;2023-04-16T00:53:10;14.15;;;6.78;;
1949;SDS011;975;48.760;9.152;2023-04-16T00:55:38;14.10;;;7.85;;
1949;SDS011;975;48.760;9.152;2023-04-16T00:58:05;13.90;;;6.93;;
1949;SDS011;975;48.760;9.152;2023-04-16T01:00:33;12.88;;;6.80;;
1949;SDS011;975;48.760;9.152;2023-04-16T01:03:00;13.00;;;6.63;;
1949;SDS011;975;48.760;9.152;2023-04-16T01:05:28;12.35;;;5.90;;
1949;SDS011;975;48.760;9.152;2023-04-16T01:07:58;12.73;;;6.80;;
1949;SDS011;975;48.760;9.152;2023-04-16T01:10:26;11.00;;;6.97;;
1949;SDS011;975;48.760;9.152;2023-04-16T01:12:53;13.00;;;6.40;;
1949;SDS011;975;48.760;9.152;2023-04-16T01:15:21;13.02;;;6.72;;
1949;SDS011;975;48.760;9.152;2023-04-16T01:17:48;11.10;;;6.72;;
1949;SDS011;975;48.760;9.152;2023-04-16T01:20:16;10.07;;;6.00;;
1949;SDS011;975;48.760;9.152;2023-04-16T01:22:44;10.13;;;5.72;;
1949;SDS011;975;48.760;9.152;2023-04-16T01:25:13;11.23;;;6.05;;
1949;SDS011;975;48.760;9.152;2023-04-16T01:27:41;9.10;;;5.82;;
1949;SDS011;975;48.760;9.152;2023-04-16T01:30:08;9.77;;;5.20;;
1949;SDS011;975;48.760;9.152;2023-04-16T01:32:36;11.25;;;5.68;;
1949;SDS011;975;48.760;9.152;2023-04-16T01:35:03;10.80;;;5.70;;
1949;SDS011;975;48.760;9.152;2023-04-16T01:37:31;10.48;;;5.15;;
1949;SDS011;975;48.760;9.152;2023-04-16T01:40:00;12.30;;;6.72;;
1949;SDS011;975;48.760;9.152;2023-04-16T01:42:27;11.57;;;5.68;;
1949;SDS011;975;48.760;9.152;2023-04-16T01:44:55;10.93;;;5.30;;
1949;SDS011;975;48.760;9.152;2023-04-16T01:47:22;10.70;;;5.68;;
1949;SDS011;975;48.760;9.152;2023-04-16T01:49:50;9.82;;;5.32;;
1949;SDS011;975;48.760;9.152;2023-04-16T01:52:17;10.02;;;5.05;;
1949;SDS011;975;48.760;9.152;2023-04-16T01:54:45;10.23;;;5.35;;
1949;SDS011;975;48.760;9.152;2023-04-16T01:57:14;10.60;;;5.53;;
1949;SDS011;975;48.760;9.152;2023-04-16T01:59:41;9.32;;;5.28;;
1949;SDS011;975;48.760;9.152;2023-04-16T02:02:10;9.32;;;4.85;;
1949;SDS011;975;48.760;9.152;2023-04-16T02:04:37;9.13;;;4.55;;
1949;SDS011;975;48.760;9.152;2023-04-16T02:07:05;8.40;;;4.43;;
1949;SDS011;975;48.760;9.152;2023-04-16T02:09:33;9.88;;;5.30;;
1949;SDS011;975;48.760;9.152;2023-04-16T02:12:01;9.07;;;4.63;;
1949;SDS011;975;48.760;9.152;2023-04-16T02:14:36;9.52;;;4.53;;
1949;SDS011;975;48.760;9.152;2023-04-16T02:17:07;9.45;;;5.43;;
1949;SDS011;975;48.760;9.152;2023-04-16T02:19:37;9.10;;;5.10;;
1949;SDS011;975;48.760;9.152;2023-04-16T02:22:05;9.82;;;5.25;;
1949;SDS011;975;48.760;9.152;2023-04-16T02:24:32;9.77;;;5.15;;
1949;SDS011;975;48.760;9.152;2023-04-16T02:27:00;8.57;;;5.05;;
1949;SDS011;975;48.760;9.152;2023-04-16T02:29:28;8.75;;;4.70;;
1949;SDS011;975;48.760;9.152;2023-04-16T02:31:57;9.23;;;5.05;;
1949;SDS011;975;48.760;9.152;2023-04-16T02:34:25;9.57;;;5.05;;
1949;SDS011;975;48.760;9.152;2023-04-16T02:36:52;10.38;;;5.20;;
1949;SDS011;975;48.760;9.152;2023-04-16T02:39:20;9.13;;;4.68;;
1949;SDS011;975;48.760;9.152;2023-04-16T02:41:47;9.18;;;4.65;;
1949;SDS011;975;48.760;9.152;2023-04-16T02:44:15;8.85;;;4.57;;
1949;SDS011;975;48.760;9.152;2023-04-16T02:46:43;10.00;;;4.43;;
1949;SDS011;975;48.760;9.152;2023-04-16T02:49:11;7.75;;;4.00;;
1949;SDS011;975;48.760;9.152;2023-04-16T02:51:39;10.00;;;5.13;;
1949;SDS011;975;48.760;9.152;2023-04-16T02:54:06;11.10;;;5.53;;
1949;SDS011;975;48.760;9.152;2023-04-16T02:56:34;8.93;;;4.53;;
1949;SDS011;975;48.760;9.152;2023-04-16T02:59:01;10.63;;;4.93;;
1949;SDS011;975;48.760;9.152;2023-04-16T03:01:29;9.82;;;5.00;;
1949;SDS011;975;48.760;9.152;2023-04-16T03:03:57;10.23;;;5.32;;
1949;SDS011;975;48.760;9.152;2023-04-16T03:06:25;12.95;;;5.78;;
1949;SDS011;975;48.760;9.152;2023-04-16T03:08:53;11.75;;;5.88;;
1949;SDS011;975;48.760;9.152;2023-04-16T03:11:20;12.65;;;5.32;;
1949;SDS011;975;48.760;9.152;2023-04-16T03:13:48;10.57;;;5.82;;
1949;SDS011;975;48.760;9.152;2023-04-16T03:16:15;12.77;;;6.00;;
1949;SDS011;975;48.760;9.152;2023-04-16T03:18:43;10.70;;;5.40;;
1949;SDS011;975;48.760;9.152;2023-04-16T03:21:10;10.02;;;5.15;;
1949;SDS011;975;48.760;9.152;2023-04-16T03:23:39;12.13;;;5.53;;
1949;SDS011;975;48.760;9.152;2023-04-16T03:26:07;10.52;;;5.00;;
1949;SDS011;975;48.760;9.152;2023-04-16T03:28:34;10.60;;;5.10;;
1949;SDS011;975;48.760;9.152;2023-04-16T03:31:02;11.27;;;4.82;;
1949;SDS011;975;48.760;9.152;2023-04-16T03:33:30;12.65;;;5.50;;
1949;SDS011;975;48.760;9.152;2023-04-16T03:35:57;11.68;;;5.85;;
1949;SDS011;975;48.760;9.152;2023-04-16T03:38:25;11.73;;;5.75;;
1949;SDS011;975;48.760;9.152;2023-04-16T03:40:54;11.18;;;5.63;;
1949;SDS011;975;48.760;9.152;2023-04-16T03:43:21;11.45;;;6.00;;
1949;SDS011;975;48.760;9.152;2023-04-16T03:45:48;12.07;;;5.40;;
1949;SDS011;975;48.760;9.152;2023-04-16T03:48:16;11.40;;;5.78;;
1949;SDS011;975;48.760;9.152;2023-04-16T03:50:44;13.48;;;6.47;;
1949;SDS011;975;48.760;9.152;2023-04-16T03:53:12;11.82;;;5.95;;
1949;SDS011;975;48.760;9.152;2023-04-16T03:55:40;11.93;;;5.75;;
1949;SDS011;975;48.760;9.152;2023-04-16T03:58:09;13.70;;;6.57;;
1949;SDS011;975;48.760;9.152;2023-04-16T04:00:39;8.50;;;4.30;;
1949;SDS011;975;48.760;9.152;2023-04-16T04:05:35;13.35;;;5.63;;
1949;SDS011;975;48.760;9.152;2023-04-16T04:08:03;11.23;;;5.25;;
1949;SDS011;975;48.760;9.152;2023-04-16T04:10:30;12.52;;;4.95;;
1949;SDS011;975;48.760;9.152;2023-04-16T04:13:01;11.35;;;5.60;;
1949;SDS011;975;48.760;9.152;2023-04-16T04:15:30;13.15;;;6.15;;
1949;SDS011;975;48.760;9.152;2023-04-16T04:17:58;15.13;;;6.97;;
1949;SDS011;975;48.760;9.152;2023-04-16T04:20:25;12.65;;;5.85;;
1949;SDS011;975;48.760;9.152;2023-04-16T04:22:53;14.80;;;6.05;;
1949;SDS011;975;48.760;9.152;2023-04-16T04:25:20;12.10;;;6.05;;
1949;SDS011;975;48.760;9.152;2023-04-16T04:27:48;12.93;;;6.15;;
1949;SDS011;975;48.760;9.152;2023-04-16T04:30:15;14.73;;;6.55;;
1949;SDS011;975;48.760;9.152;2023-04-16T04:32:44;10.77;;;4.90;;
1949;SDS011;975;48.760;9.152;2023-04-16T04:35:12;12.73;;;6.22;;
1949;SDS011;975;48.760;9.152;2023-04-16T04:37:39;12.80;;;5.32;;
1949;SDS011;975;48.760;9.152;2023-04-16T04:40:07;12.05;;;5.93;;
1949;SDS011;975;48.760;9.152;2023-04-16T04:42:35;10.65;;;4.70;;
1949;SDS011;975;48.760;9.152;2023-04-16T04:45:03;11.02;;;5.60;;
1949;SDS011;975;48.760;9.152;2023-04-16T04:47:30;9.75;;;5.03;;
1949;SDS011;975;48.760;9.152;2023-04-16T04:49:59;13.65;;;5.80;;
1949;SDS011;975;48.760;9.152;2023-04-16T04:52:26;9.85;;;4.60;;
1949;SDS011;975;48.760;9.152;2023-04-16T04:54:54;14.15;;;6.05;;
1949;SDS011;975;48.760;9.152;2023-04-16T04:57:21;12.10;;;5.57;;
1949;SDS011;975;48.760;9.152;2023-04-16T04:59:49;10.38;;;4.97;;
1949;SDS011;975;48.760;9.152;2023-04-16T05:02:17;9.43;;;4.28;;
1949;SDS011;975;48.760;9.152;2023-04-16T05:04:44;12.65;;;5.47;;
1949;SDS011;975;48.760;9.152;2023-04-16T05:07:13;15.68;;;6.03;;
1949;SDS011;975;48.760;9.152;2023-04-16T05:09:40;15.73;;;5.63;;
1949;SDS011;975;48.760;9.152;2023-04-16T05:12:08;10.52;;;5.47;;
1949;SDS011;975;48.760;9.152;2023-04-16T05:14:35;10.00;;;4.70;;
1949;SDS011;975;48.760;9.152;2023-04-16T05:17:03;11.25;;;5.22;;
1949;SDS011;975;48.760;9.152;2023-04-16T05:19:32;12.23;;;5.43;;
1949;SDS011;975;48.760;9.152;2023-04-16T05:21:59;11.15;;;5.13;;
1949;SDS011;975;48.760;9.152;2023-04-16T05:24:29;14.32;;;5.97;;
1949;SDS011;975;48.760;9.152;2023-04-16T05:26:56;11.40;;;6.18;;
1949;SDS011;975;48.760;9.152;2023-04-16T05:29:23;11.80;;;5.97;;
1949;SDS011;975;48.760;9.152;2023-04-16T05:31:51;12.70;;;5.38;;
1949;SDS011;975;48.760;9.152;2023-04-16T05:34:18;14.82;;;6.85;;
1949;SDS011;975;48.760;9.152;2023-04-16T05:36:46;18.40;;;7.50;;
1949;SDS011;975;48.760;9.152;2023-04-16T05:39:15;19.65;;;8.05;;
1949;SDS011;975;48.760;9.152;2023-04-16T05:41:44;13.60;;;6.53;;
1949;SDS011;975;48.760;9.152;2023-04-16T05:44:11;19.15;;;8.77;;
1949;SDS011;975;48.760;9.152;2023-04-16T05:46:40;20.48;;;9.13;;
1949;SDS011;975;48.760;9.152;2023-04-16T05:49:07;26.58;;;10.60;;
1949;SDS011;975;48.760;9.152;2023-04-16T05:51:35;21.85;;;9.93;;
1949;SDS011;975;48.760;9.152;2023-04-16T05:54:02;27.55;;;10.40;;
1949;SDS011;975;48.760;9.152;2023-04-16T05:56:30;29.95;;;11.07;;
1949;SDS011;975;48.760;9.152;2023-04-16T05:58:58;28.25;;;11.10;;
1949;SDS011;975;48.760;9.152;2023-04-16T06:01:26;26.63;;;10.98;;
1949;SDS011;975;48.760;9.152;2023-04-16T06:03:53;30.08;;;12.90;;
1949;SDS011;975;48.760;9.152;2023-04-16T06:06:21;25.85;;;11.38;;
1949;SDS011;975;48.760;9.152;2023-04-16T06:08:48;29.02;;;11.90;;
1949;SDS011;975;48.760;9.152;2023-04-16T06:11:16;25.98;;;11.13;;
1949;SDS011;975;48.760;9.152;2023-04-16T06:13:43;31.27;;;12.25;;
1949;SDS011;975;48.760;9.152;2023-04-16T06:16:12;29.95;;;12.48;;
1949;SDS011;975;48.760;9.152;2023-04-16T06:18:39;33.40;;;12.73;;
1949;SDS011;975;48.760;9.152;2023-04-16T06:21:07;32.00;;;13.02;;
1949;SDS011;975;48.760;9.152;2023-04-16T06:23:34;31.10;;;13.65;;
1949;SDS011;975;48.760;9.152;2023-04-16T06:26:02;30.58;;;12.52;;
1949;SDS011;975;48.760;9.152;2023-04-16T06:28:29;28.10;;;11.05;;
1949;SDS011;975;48.760;9.152;2023-04-16T06:30:58;36.13;;;12.85;;
1949;SDS011;975;48.760;9.152;2023-04-16T06:33:27;23.02;;;10.60;;
1949;SDS011;975;48.760;9.152;2023-04-16T06:35:54;28.77;;;12.20;;
1949;SDS011;975;48.760;9.152;2023-04-16T06:38:21;29.92;;;11.43;;
1949;SDS011;975;48.760;9.152;2023-04-16T06:40:49;27.58;;;11.50;;
1949;SDS011;975;48.760;9.152;2023-04-16T06:43:17;29.27;;;12.77;;
1949;SDS011;975;48.760;9.152;2023-04-16T06:45:44;29.52;;;13.00;;
1949;SDS011;975;48.760;9.152;2023-04-16T06:48:11;29.95;;;13.18;;
1949;SDS011;975;48.760;9.152;2023-04-16T06:50:40;32.15;;;12.82;;
1949;SDS011;975;48.760;9.152;2023-04-16T06:53:08;28.70;;;12.50;;
1949;SDS011;975;48.760;9.152;2023-04-16T06:55:35;35.22;;;13.32;;
1949;SDS011;975;48.760;9.152;2023-04-16T06:58:03;26.73;;;11.07;;
1949;SDS011;975;48.760;9.152;2023-04-16T07:00:30;25.42;;;10.77;;
1949;SDS011;975;48.760;9.152;2023-04-16T07:02:59;29.38;;;13.18;;
1949;SDS011;975;48.760;9.152;2023-04-16T07:05:27;32.88;;;13.63;;
1949;SDS011;975;48.760;9.152;2023-04-16T07:07:57;34.58;;;13.27;;
1949;SDS011;975;48.760;9.152;2023-04-16T07:10:25;35.53;;;13.52;;
1949;SDS011;975;48.760;9.152;2023-04-16T07:12:52;34.00;;;12.68;;
1949;SDS011;975;48.760;9.152;2023-04-16T07:15:20;32.15;;;13.80;;
1949;SDS011;975;48.760;9.152;2023-04-16T07:17:47;31.92;;;12.55;;
1949;SDS011;975;48.760;9.152;2023-04-16T07:20:15;34.65;;;12.68;;
1949;SDS011;975;48.760;9.152;2023-04-16T07:22:42;31.30;;;14.13;;
1949;SDS011;975;48.760;9.152;2023-04-16T07:25:11;27.92;;;11.95;;
1949;SDS011;975;48.760;9.152;2023-04-16T07:27:39;30.15;;;13.32;;
1949;SDS011;975;48.760;9.152;2023-04-16T07:30:06;32.10;;;12.50;;
1949;SDS011;975;48.760;9.152;2023-04-16T07:32:34;33.40;;;12.07;;
1949;SDS011;975;48.760;9.152;2023-04-16T07:35:02;25.17;;;10.98;;
1949;SDS011;975;48.760;9.152;2023-04-16T07:37:29;27.00;;;11.10;;
1949;SDS011;975;48.760;9.152;2023-04-16T07:39:57;25.98;;;10.30;;
1949;SDS011;975;48.760;9.152;2023-04-16T07:42:26;28.55;;;11.82;;
1949;SDS011;975;48.760;9.152;2023-04-16T07:44:54;29.10;;;11.50;;
1949;SDS011;975;48.760;9.152;2023-04-16T07:47:21;28.85;;;11.05;;
1949;SDS011;975;48.760;9.152;2023-04-16T07:49:50;29.17;;;12.32;;
1949;SDS011;975;48.760;9.152;2023-04-16T07:52:18;23.83;;;10.15;;
1949;SDS011;975;48.760;9.152;2023-04-16T07:54:46;27.20;;;11.63;;
1949;SDS011;975;48.760;9.152;2023-04-16T07:57:13;24.45;;;11.32;;
1949;SDS011;975;48.760;9.152;2023-04-16T07:59:42;26.88;;;11.15;;
1949;SDS011;975;48.760;9.152;2023-04-16T08:02:10;30.55;;;12.93;;
1949;SDS011;975;48.760;9.152;2023-04-16T08:04:39;26.63;;;11.07;;
1949;SDS011;975;48.760;9.152;2023-04-16T08:07:07;24.88;;;10.55;;
1949;SDS011;975;48.760;9.152;2023-04-16T08:09:34;27.27;;;12.35;;
1949;SDS011;975;48.760;9.152;2023-04-16T08:12:02;22.80;;;10.55;;
1949;SDS011;975;48.760;9.152;2023-04-16T08:14:29;26.98;;;10.45;;
1949;SDS011;975;48.760;9.152;2023-04-16T08:16:58;23.20;;;10.35;;
1949;SDS011;975;48.760;9.152;2023-04-16T08:19:27;25.02;;;11.20;;
1949;SDS011;975;48.760;9.152;2023-04-16T08:21:54;23.17;;;10.63;;
1949;SDS011;975;48.760;9.152;2023-04-16T08:24:22;18.08;;;9.48;;
1949;SDS011;975;48.760;9.152;2023-04-16T08:26:50;24.67;;;10.80;;
1949;SDS011;975;48.760;9.152;2023-04-16T08:29:17;23.73;;;10.63;;
1949;SDS011;975;48.760;9.152;2023-04-16T08:31:45;22.70;;;10.43;;
1949;SDS011;975;48.760;9.152;2023-04-16T08:34:14;22.02;;;9.60;;
1949;SDS011;975;48.760;9.152;2023-04-16T08:36:41;26.23;;;10.45;;
1949;SDS011;975;48.760;9.152;2023-04-16T08:39:09;22.15;;;9.95;;
1949;SDS011;975;48.760;9.152;2023-04-16T08:41:37;20.42;;;9.23;;
1949;SDS011;975;48.760;9.152;2023-04-16T08:44:06;27.35;;;11.27;;
1949;SDS011;975;48.760;9.152;2023-04-16T08:46:35;25.23;;;11.00;;
1949;SDS011;975;48.760;9.152;2023-04-16T08:49:04;24.80;;;10.20;;
1949;SDS011;975;48.760;9.152;2023-04-16T08:51:35;25.35;;;11.23;;
1949;SDS011;975;48.760;9.152;2023-04-16T08:54:03;26.60;;;10.88;;
1949;SDS011;975;48.760;9.152;2023-04-16T08:56:31;20.52;;;9.35;;
1949;SDS011;975;48.760;9.152;2023-04-16T09:01:30;20.98;;;9.93;;
1949;SDS011;975;48.760;9.152;2023-04-16T09:03:58;23.35;;;10.55;;
1949;SDS011;975;48.760;9.152;2023-04-16T09:06:26;22.88;;;9.98;;
1949;SDS011;975;48.760;9.152;2023-04-16T09:08:55;22.42;;;10.07;;
1949;SDS011;975;48.760;9.152;2023-04-16T09:11:23;20.60;;;9.40;;
1949;SDS011;975;48.760;9.152;2023-04-16T09:13:51;21.70;;;10.23;;
1949;SDS011;975;48.760;9.152;2023-04-16T09:16:19;23.45;;;9.07;;
1949;SDS011;975;48.760;9.152;2023-04-16T09:18:46;19.98;;;8.73;;
1949;SDS011;975;48.760;9.152;2023-04-16T09:21:14;19.90;;;8.57;;
1949;SDS011;975;48.760;9.152;2023-04-16T09:23:41;19.50;;;9.35;;
1949;SDS011;975;48.760;9.152;2023-04-16T09:26:11;19.27;;;9.27;;
1949;SDS011;975;48.760;9.152;2023-04-16T09:28:41;18.52;;;8.38;;
1949;SDS011;975;48.760;9.152;2023-04-16T09:31:09;20.17;;;9.40;;
1949;SDS011;975;48.760;9.152;2023-04-16T09:33:39;20.10;;;9.15;;
1949;SDS011;975;48.760;9.152;2023-04-16T09:36:07;19.50;;;8.82;;
1949;SDS011;975;48.760;9.152;2023-04-16T09:38:44;23.13;;;9.05;;
1949;SDS011;975;48.760;9.152;2023-04-16T09:43:42;20.83;;;8.95;;
1949;SDS011;975;48.760;9.152;2023-04-16T09:46:15;20.63;;;8.98;;
1949;SDS011;975;48.760;9.152;2023-04-16T09:48:43;21.67;;;9.40;;
1949;SDS011;975;48.760;9.152;2023-04-16T09:51:12;26.88;;;11.73;;
1949;SDS011;975;48.760;9.152;2023-04-16T09:53:40;21.25;;;10.07;;
1949;SDS011;975;48.760;9.152;2023-04-16T09:56:08;17.48;;;8.57;;
1949;SDS011;975;48.760;9.152;2023-04-16T09:58:36;19.00;;;8.48;;
1949;SDS011;975;48.760;9.152;2023-04-16T10:01:05;18.77;;;8.85;;
1949;SDS011;975;48.760;9.152;2023-04-16T10:03:34;18.83;;;9.13;;
1949;SDS011;975;48.760;9.152;2023-04-16T10:06:05;19.10;;;8.82;;
1949;SDS011;975;48.760;9.152;2023-04-16T10:08:33;19.52;;;9.10;;
1949;SDS011;975;48.760;9.152;2023-04-16T10:11:01;19.40;;;9.05;;
1949;SDS011;975;48.760;9.152;2023-04-16T10:13:29;20.20;;;9.07;;
1949;SDS011;975;48.760;9.152;2023-04-16T10:15:56;23.15;;;9.85;;
1949;SDS011;975;48.760;9.152;2023-04-16T10:18:25;22.02;;;9.88;;
1949;SDS011;975;48.760;9.152;2023-04-16T10:20:53;20.65;;;8.82;;
1949;SDS011;975;48.760;9.152;2023-04-16T10:23:21;23.52;;;10.35;;
1949;SDS011;975;48.760;9.152;2023-04-16T10:25:49;20.15;;;9.07;;
1949;SDS011;975;48.760;9.152;2023-04-16T10:28:16;21.17;;;9.00;;
1949;SDS011;975;48.760;9.152;2023-04-16T10:30:46;20.70;;;9.68;;
1949;SDS011;975;48.760;9.152;2023-04-16T10:33:21;23.92;;;9.05;;
1949;SDS011;975;48.760;9.152;2023-04-16T10:35:52;24.95;;;9.73;;
1949;SDS011;975;48.760;9.152;2023-04-16T10:38:33;17.67;;;8.82;;
1949;SDS011;975;48.760;9.152;2023-04-16T10:41:01;16.30;;;6.68;;
1949;SDS011;975;48.760;9.152;2023-04-16T10:43:29;20.98;;;9.05;;
1949;SDS011;975;48.760;9.152;2023-04-16T10:45:56;17.08;;;8.35;;
1949;SDS011;975;48.760;9.152;2023-04-16T10:48:43;19.05;;;8.65;;
1949;SDS011;975;48.760;9.152;2023-04-16T10:51:23;19.48;;;9.05;;
1949;SDS011;975;48.760;9.152;2023-04-16T10:53:52;21.38;;;9.07;;
1949;SDS011;975;48.760;9.152;2023-04-16T10:56:23;16.65;;;8.13;;
1949;SDS011;975;48.760;9.152;2023-04-16T11:01:18;19.00;;;7.78;;
1949;SDS011;975;48.760;9.152;2023-04-16T11:03:52;19.67;;;8.50;;
1949;SDS011;975;48.760;9.152;2023-04-16T11:06:24;18.88;;;8.10;;
1949;SDS011;975;48.760;9.152;2023-04-16T11:08:52;17.05;;;8.13;;
1949;SDS011;975;48.760;9.152;2023-04-16T11:11:19;19.70;;;8.35;;
1949;SDS011;975;48.760;9.152;2023-04-16T11:13:53;18.92;;;8.35;;
1949;SDS011;975;48.760;9.152;2023-04-16T11:16:21;17.63;;;7.47;;
1949;SDS011;975;48.760;9.152;2023-04-16T11:18:48;16.40;;;7.80;;
1949;SDS011;975;48.760;9.152;2023-04-16T11:21:16;17.63;;;7.50;;
1949;SDS011;975;48.760;9.152;2023-04-16T11:23:45;17.27;;;7.20;;
1949;SDS011;975;48.760;9.152;2023-04-16T11:26:21;15.65;;;6.80;;
1949;SDS011;975;48.760;9.152;2023-04-16T11:28:49;15.45;;;7.43;;
1949;SDS011;975;48.760;9.152;2023-04-16T11:31:17;17.88;;;7.93;;
1949;SDS011;975;48.760;9.152;2023-04-16T11:33:44;14.93;;;6.55;;
1949;SDS011;975;48.760;9.152;2023-04-16T11:36:12;13.65;;;6.43;;
1949;SDS011;975;48.760;9.152;2023-04-16T11:38:39;9.95;;;4.68;;
1949;SDS011;975;48.760;9.152;2023-04-16T11:41:08;12.65;;;5.32;;
1949;SDS011;975;48.760;9.152;2023-04-16T11:43:36;12.38;;;5.25;;
1949;SDS011;975;48.760;9.152;2023-04-16T11:46:04;12.45;;;5.50;;
1949;SDS011;975;48.760;9.152;2023-04-16T11:48:45;11.93;;;5.20;;
1949;SDS011;975;48.760;9.152;2023-04-16T11:51:13;14.77;;;5.70;;
1949;SDS011;975;48.760;9.152;2023-04-16T11:53:44;10.93;;;4.65;;
1949;SDS011;975;48.760;9.152;2023-04-16T11:56:13;10.25;;;4.72;;
1949;SDS011;975;48.760;9.152;2023-04-16T11:58:42;9.13;;;4.75;;
1949;SDS011;975;48.760;9.152;2023-04-16T12:01:10;9.15;;;4.78;;
1949;SDS011;975;48.760;9.152;2023-04-16T12:03:39;8.27;;;4.57;;
1949;SDS011;975;48.760;9.152;2023-04-16T12:06:08;11.23;;;4.72;;
1949;SDS011;975;48.760;9.152;2023-04-16T12:08:36;7.43;;;3.80;;
1949;SDS011;975;48.760;9.152;2023-04-16T12:11:03;10.45;;;3.60;;
1949;SDS011;975;48.760;9.152;2023-04-16T12:13:32;8.07;;;3.70;;
1949;SDS011;975;48.760;9.152;2023-04-16T12:16:15;6.20;;;3.30;;
1949;SDS011;975;48.760;9.152;2023-04-16T12:18:57;6.45;;;3.15;;
1949;SDS011;975;48.760;9.152;2023-04-16T12:21:34;5.95;;;3.13;;
1949;SDS011;975;48.760;9.152;2023-04-16T12:24:02;7.97;;;3.60;;
1949;SDS011;975;48.760;9.152;2023-04-16T12:26:34;5.72;;;3.05;;
1949;SDS011;975;48.760;9.152;2023-04-16T12:29:14;6.05;;;3.10;;
1949;SDS011;975;48.760;9.152;2023-04-16T12:31:41;5.50;;;2.70;;
1949;SDS011;975;48.760;9.152;2023-04-16T12:34:09;5.97;;;3.03;;
1949;SDS011;975;48.760;9.152;2023-04-16T12:36:37;6.60;;;2.40;;
1949;SDS011;975;48.760;9.152;2023-04-16T12:39:04;4.93;;;2.67;;
1949;SDS011;975;48.760;9.152;2023-04-16T12:41:33;6.22;;;3.63;;
1949;SDS011;975;48.760;9.152;2023-04-16T12:44:04;4.35;;;2.95;;
1949;SDS011;975;48.760;9.152;2023-04-16T12:46:35;5.50;;;3.08;;
1949;SDS011;975;48.760;9.152;2023-04-16T12:49:02;6.13;;;3.13;;
1949;SDS011;975;48.760;9.152;2023-04-16T12:51:30;5.60;;;3.20;;
1949;SDS011;975;48.760;9.152;2023-04-16T12:53:58;6.95;;;3.50;;
1949;SDS011;975;48.760;9.152;2023-04-16T12:56:26;5.85;;;3.05;;
1949;SDS011;975;48.760;9.152;2023-04-16T12:58:53;6.80;;;3.13;;
1949;SDS011;975;48.760;9.152;2023-04-16T13:01:21;6.78;;;3.17;;
1949;SDS011;975;48.760;9.152;2023-04-16T13:03:50;6.07;;;3.22;;
1949;SDS011;975;48.760;9.152;2023-04-16T13:06:18;5.90;;;3.65;;
1949;SDS011;975;48.760;9.152;2023-04-16T13:08:46;5.78;;;3.50;;
1949;SDS011;975;48.760;9.152;2023-04-16T13:11:13;3.90;;;2.33;;
1949;SDS011;975;48.760;9.152;2023-04-16T13:13:41;5.80;;;2.67;;
1949;SDS011;975;48.760;9.152;2023-04-16T13:16:08;6.30;;;3.50;;
1949;SDS011;975;48.760;9.152;2023-04-16T13:18:37;8.18;;;3.35;;
1949;SDS011;975;48.760;9.152;2023-04-16T13:21:06;6.30;;;3.58;;
1949;SDS011;975;48.760;9.152;2023-04-16T13:23:34;6.53;;;2.92;;
1949;SDS011;975;48.760;9.152;2023-04-16T13:26:02;7.40;;;3.47;;
1949;SDS011;975;48.760;9.152;2023-04-16T13:28:29;6.35;;;3.10;;
1949;SDS011;975;48.760;9.152;2023-04-16T13:30:57;7.43;;;3.75;;
1949;SDS011;975;48.760;9.152;2023-04-16T13:33:24;6.82;;;3.38;;
1949;SDS011;975;48.760;9.152;2023-04-16T13:35:55;8.27;;;3.83;;
1949;SDS011;975;48.760;9.152;2023-04-16T13:38:24;8.38;;;3.60;;
1949;SDS011;975;48.760;9.152;2023-04-16T13:40:52;7.85;;;4.10;;
1949;SDS011;975;48.760;9.152;2023-04-16T13:43:19;7.43;;;3.83;;
1949;SDS011;975;48.760;9.152;2023-04-16T13:45:47;10.50;;;4.32;;
1949;SDS011;975;48.760;9.152;2023-04-16T13:48:15;9.63;;;4.03;;
1949;SDS011;975;48.760;9.152;2023-04-16T13:50:42;6.72;;;3.78;;
1949;SDS011;975;48.760;9.152;2023-04-16T13:53:10;6.28;;;3.67;;
1949;SDS011;975;48.760;9.152;2023-04-16T13:55:39;9.15;;;3.92;;
1949;SDS011;975;48.760;9.152;2023-04-16T13:58:07;8.13;;;4.05;;
1949;SDS011;975;48.760;9.152;2023-04-16T14:00:35;8.18;;;4.00;;
1949;SDS011;975;48.760;9.152;2023-04-16T14:03:03;11.23;;;4.63;;
1949;SDS011;975;48.760;9.152;2023-04-16T14:05:31;10.88;;;4.88;;
1949;SDS011;975;48.760;9.152;2023-04-16T14:07:58;9.27;;;4.25;;
1949;SDS011;975;48.760;9.152;2023-04-16T14:10:27;8.95;;;5.07;;
1949;SDS011;975;48.760;9.152;2023-04-16T14:12:57;8.70;;;4.68;;
1949;SDS011;975;48.760;9.152;2023-04-16T14:15:24;7.82;;;4.15;;
1949;SDS011;975;48.760;9.152;2023-04-16T14:17:54;9.50;;;4.82;;
1949;SDS011;975;48.760;9.152;2023-04-16T14:20:21;10.63;;;5.15;;
1949;SDS011;975;48.760;9.152;2023-04-16T14:22:49;8.77;;;4.80;;
1949;SDS011;975;48.760;9.152;2023-04-16T14:25:17;10.18;;;4.85;;
1949;SDS011;975;48.760;9.152;2023-04-16T14:27:44;9.70;;;4.70;;
1949;SDS011;975;48.760;9.152;2023-04-16T14:30:13;9.45;;;5.00;;
1949;SDS011;975;48.760;9.152;2023-04-16T14:32:42;9.85;;;4.47;;
1949;SDS011;975;48.760;9.152;2023-04-16T14:35:09;10.57;;;4.80;;
1949;SDS011;975;48.760;9.152;2023-04-16T14:37:37;11.88;;;5.55;;
1949;SDS011;975;48.760;9.152;2023-04-16T14:40:05;12.23;;;4.82;;
1949;SDS011;975;48.760;9.152;2023-04-16T14:42:33;10.85;;;5.00;;
1949;SDS011;975;48.760;9.152;2023-04-16T14:45:02;11.07;;;5.35;;
1949;SDS011;975;48.760;9.152;2023-04-16T14:47:32;9.23;;;5.03;;
1949;SDS011;975;48.760;9.152;2023-04-16T14:50:00;11.95;;;5.60;;
1949;SDS011;975;48.760;9.152;2023-04-16T14:52:29;13.18;;;6.47;;
1949;SDS011;975;48.760;9.152;2023-04-16T14:54:57;11.40;;;5.82;;
1949;SDS011;975;48.760;9.152;2023-04-16T14:57:24;12.70;;;6.80;;
1949;SDS011;975;48.760;9.152;2023-04-16T14:59:52;12.25;;;6.45;;
1949;SDS011;975;48.760;9.152;2023-04-16T15:02:20;16.02;;;7.22;;
1949;SDS011;975;48.760;9.152;2023-04-16T15:04:49;14.07;;;6.72;;
1949;SDS011;975;48.760;9.152;2023-04-16T15:07:17;15.23;;;7.28;;
1949;SDS011;975;48.760;9.152;2023-04-16T15:09:44;14.38;;;7.35;;
1949;SDS011;975;48.760;9.152;2023-04-16T15:12:12;15.68;;;7.60;;
1949;SDS011;975;48.760;9.152;2023-04-16T15:14:39;18.20;;;8.32;;
1949;SDS011;975;48.760;9.152;2023-04-16T15:17:07;15.05;;;7.78;;
1949;SDS011;975;48.760;9.152;2023-04-16T15:19:35;17.25;;;8.23;;
1949;SDS011;975;48.760;9.152;2023-04-16T15:22:04;21.08;;;9.73;;
1949;SDS011;975;48.760;9.152;2023-04-16T15:24:32;16.92;;;7.97;;
1949;SDS011;975;48.760;9.152;2023-04-16T15:26:59;19.92;;;9.23;;
1949;SDS011;975;48.760;9.152;2023-04-16T15:29:27;21.88;;;10.35;;
1949;SDS011;975;48.760;9.152;2023-04-16T15:31:54;18.73;;;9.60;;